Time;durP1;ratioP1;P1;durP2;ratioP2;P2;SDS_P1;SDS_P2;PMS_P1;PMS_P2;Temp;Humidity;BMP_temperature;BMP_pressure;BME280_temperature;BME280_humidity;BME280_pressure;Samples;Min_cycle;Max_cycle;Signal;HPM_P1;HPM_P2
2022/09/10 00:00:42;;;;;;;;;;;14.70;99.90;;;;;;5025933;28;19945;-82
2022/09/10 00:03:09;;;;;;;;;;;14.70;99.90;;;;;;5008401;28;19933;-81
2022/09/10 00:05:42;;;;;;;;;;;14.80;99.90;;;;;;5017412;28;19940;-81
2022/09/10 00:08:09;;;;;;;;;;;14.70;99.90;;;;;;5005758;28;19948;-81
2022/09/10 00:10:42;;;;;;;;;;;14.70;99.90;;;;;;5012868;28;20391;-82
2022/09/10 00:13:08;;;;;;;;;;;14.70;99.90;;;;;;5043549;28;19925;-83
2022/09/10 00:15:41;;;;;;;;;;;14.80;99.90;;;;;;5024431;28;19936;-82
2022/09/10 00:18:10;;;;;;;;;;;14.70;99.90;;;;;;5003510;28;19933;-83
2022/09/10 00:20:43;;;;;;;;;;;14.70;99.90;;;;;;5022984;28;19929;-83
2022/09/10 00:23:09;;;;;;;;;;;14.80;99.90;;;;;;5010136;28;19943;-83
2022/09/10 00:25:34;;;;;;;;;;;14.80;99.90;;;;;;5026830;28;19925;-83
2022/09/10 00:28:01;;;;;;;;;;;14.80;99.90;;;;;;4993785;28;19932;-82
2022/09/10 00:30:26;;;;;;;;;;;14.80;99.90;;;;;;5024512;28;19925;-84
2022/09/10 00:32:55;;;;;;;;;;;14.80;99.90;;;;;;5024759;28;20486;-83
2022/09/10 00:35:21;;;;;;;;;;;14.80;99.90;;;;;;5008995;28;19925;-83
2022/09/10 00:37:47;;;;;;;;;;;14.90;99.90;;;;;;5023390;28;19925;-83
2022/09/10 00:40:13;;;;;;;;;;;14.90;99.90;;;;;;4991738;28;20038;-84
2022/09/10 00:42:42;;;;;;;;;;;14.90;99.90;;;;;;5027814;28;20935;-83
2022/09/10 00:45:16;;;;;;;;;;;14.90;99.90;;;;;;5001790;28;19933;-80
2022/09/10 00:47:45;;;;;;;;;;;14.90;99.90;;;;;;5024064;28;20484;-84
2022/09/10 00:50:14;;;;;;;;;;;14.90;99.90;;;;;;5009807;28;19929;-83
2022/09/10 00:52:40;;;;;;;;;;;14.90;99.90;;;;;;5028566;28;19987;-82
2022/09/10 00:55:07;;;;;;;;;;;14.90;99.90;;;;;;5027577;28;20518;-83
2022/09/10 00:57:33;;;;;;;;;;;14.90;99.90;;;;;;5009905;28;20016;-85
2022/09/10 01:00:00;;;;;;;;;;;15.00;99.90;;;;;;5008102;28;20356;-83
2022/09/10 01:02:26;;;;;;;;;;;15.00;99.90;;;;;;5001664;28;20009;-83
2022/09/10 01:04:53;;;;;;;;;;;15.00;99.90;;;;;;4987090;28;20020;-85
2022/09/10 01:07:20;;;;;;;;;;;15.00;99.90;;;;;;5007345;28;20482;-83
2022/09/10 01:09:46;;;;;;;;;;;15.00;99.90;;;;;;5026855;28;20388;-84
2022/09/10 01:12:21;;;;;;;;;;;15.00;99.90;;;;;;5020041;28;19929;-83
2022/09/10 01:15:12;;;;;;;;;;;15.00;99.90;;;;;;5009253;28;19952;-87
2022/09/10 01:17:50;;;;;;;;;;;15.10;99.90;;;;;;5018508;28;19941;-85
2022/09/10 01:20:34;;;;;;;;;;;15.00;99.90;;;;;;5022307;28;19929;-82
2022/09/10 01:23:19;;;;;;;;;;;15.00;99.90;;;;;;5009205;28;19937;-83
2022/09/10 01:25:50;;;;;;;;;;;15.00;99.90;;;;;;5003757;28;19925;-84
2022/09/10 01:28:21;;;;;;;;;;;15.00;99.90;;;;;;5003162;28;19960;-84
2022/09/10 01:30:51;;;;;;;;;;;15.00;99.90;;;;;;5026102;28;20000;-83
2022/09/10 01:33:26;;;;;;;;;;;15.00;99.90;;;;;;5007414;28;20484;-84
2022/09/10 01:35:55;;;;;;;;;;;15.00;99.90;;;;;;5023773;28;19936;-86
2022/09/10 01:38:30;;;;;;;;;;;15.00;99.90;;;;;;5008759;28;20376;-85
2022/09/10 01:41:03;;;;;;;;;;;15.00;99.90;;;;;;4991254;28;19932;-84
2022/09/10 01:43:29;;;;;;;;;;;15.00;99.90;;;;;;5002750;28;20132;-81
2022/09/10 01:46:13;;;;;;;;;;;15.00;99.90;;;;;;4990828;28;19968;-84
2022/09/10 01:48:59;;;;;;;;;;;15.00;99.90;;;;;;5024789;28;19925;-82
2022/09/10 01:51:50;;;;;;;;;;;15.00;99.90;;;;;;5023138;28;23062;-84
2022/09/10 01:54:27;;;;;;;;;;;15.00;99.90;;;;;;5008571;28;20399;-82
2022/09/10 01:57:00;;;;;;;;;;;15.00;99.90;;;;;;5024135;28;19951;-84
2022/09/10 01:59:38;;;;;;;;;;;15.00;99.90;;;;;;5009004;28;19928;-85
2022/09/10 02:02:12;;;;;;;;;;;15.00;99.90;;;;;;5025397;28;19938;-82
2022/09/10 02:04:38;;;;;;;;;;;15.00;99.90;;;;;;5023839;28;20482;-78
2022/09/10 02:09:55;;;;;;;;;;;15.00;99.90;;;;;;5014991;28;19926;-78
2022/09/10 02:12:21;;;;;;;;;;;15.00;99.90;;;;;;4979524;28;20502;-79
2022/09/10 02:14:52;;;;;;;;;;;15.00;99.90;;;;;;4988078;28;19976;-78
2022/09/10 02:17:19;;;;;;;;;;;15.00;99.90;;;;;;5011607;28;19925;-77
2022/09/10 02:19:45;;;;;;;;;;;15.00;99.90;;;;;;4971448;28;20340;-79
2022/09/10 02:22:11;;;;;;;;;;;15.00;99.90;;;;;;4992085;28;19929;-78
2022/09/10 02:24:37;;;;;;;;;;;15.00;99.90;;;;;;4989288;28;20389;-79
2022/09/10 02:27:05;;;;;;;;;;;15.00;99.90;;;;;;4990676;28;19929;-77
2022/09/10 02:29:33;;;;;;;;;;;15.00;99.90;;;;;;5007360;28;19942;-78
2022/09/10 02:31:58;;;;;;;;;;;15.00;99.90;;;;;;4996010;28;19929;-79
2022/09/10 02:34:24;;;;;;;;;;;15.00;99.90;;;;;;4971808;28;19975;-76
2022/09/10 02:36:50;;;;;;;;;;;15.00;99.90;;;;;;5007749;28;19924;-78
2022/09/10 02:39:16;;;;;;;;;;;15.00;99.90;;;;;;4979900;28;19929;-76
2022/09/10 02:41:42;;;;;;;;;;;15.00;99.90;;;;;;4989889;28;20408;-77
2022/09/10 02:44:07;;;;;;;;;;;15.00;99.90;;;;;;4983327;28;20046;-77
2022/09/10 02:46:33;;;;;;;;;;;15.00;99.90;;;;;;4985367;28;20060;-77
2022/09/10 02:48:59;;;;;;;;;;;15.00;99.90;;;;;;5004507;28;19976;-78
2022/09/10 02:51:25;;;;;;;;;;;15.00;99.90;;;;;;4986826;28;20048;-77
2022/09/10 02:53:51;;;;;;;;;;;15.00;99.90;;;;;;4984151;28;20051;-77
2022/09/10 02:56:18;;;;;;;;;;;15.00;99.90;;;;;;4991237;28;20675;-77
2022/09/10 02:58:44;;;;;;;;;;;15.00;99.90;;;;;;4984980;28;19926;-78
2022/09/10 03:01:13;;;;;;;;;;;15.00;99.90;;;;;;4991628;28;20558;-77
2022/09/10 03:03:39;;;;;;;;;;;15.00;99.90;;;;;;5005095;28;19944;-78
2022/09/10 03:06:06;;;;;;;;;;;15.00;99.90;;;;;;4994223;28;19925;-77
2022/09/10 03:08:31;;;;;;;;;;;15.00;99.90;;;;;;5001383;28;20024;-77
2022/09/10 03:10:58;;;;;;;;;;;15.10;99.90;;;;;;4985799;28;19929;-78
2022/09/10 03:13:26;;;;;;;;;;;15.10;99.90;;;;;;5005516;28;19978;-76
2022/09/10 03:15:53;;;;;;;;;;;15.10;99.90;;;;;;5001594;28;19921;-77
2022/09/10 03:18:21;;;;;;;;;;;15.10;99.90;;;;;;4983073;28;19925;-78
2022/09/10 03:20:47;;;;;;;;;;;15.10;99.90;;;;;;4988404;28;19925;-77
2022/09/10 03:23:13;;;;;;;;;;;15.10;99.90;;;;;;5000548;28;19971;-78
2022/09/10 03:25:39;;;;;;;;;;;15.10;99.90;;;;;;5005018;28;20291;-79
2022/09/10 03:28:05;;;;;;;;;;;15.10;99.90;;;;;;4998602;28;19932;-78
2022/09/10 03:30:31;;;;;;;;;;;15.00;99.90;;;;;;4982948;28;19932;-79
2022/09/10 03:32:57;;;;;;;;;;;15.00;99.90;;;;;;5007406;28;19929;-79
2022/09/10 03:35:23;;;;;;;;;;;15.10;99.90;;;;;;5004398;28;20050;-77
2022/09/10 03:37:49;;;;;;;;;;;15.00;99.90;;;;;;5003829;28;19925;-77
2022/09/10 03:40:15;;;;;;;;;;;15.00;99.90;;;;;;4970457;28;20550;-79
2022/09/10 03:42:41;;;;;;;;;;;15.00;99.90;;;;;;4976735;28;20016;-77
2022/09/10 03:45:07;;;;;;;;;;;15.00;99.90;;;;;;4973920;28;19932;-81
2022/09/10 03:47:35;;;;;;;;;;;15.00;99.90;;;;;;4999677;28;20012;-79
2022/09/10 03:50:01;;;;;;;;;;;15.00;99.90;;;;;;4988658;28;19925;-79
2022/09/10 03:52:28;;;;;;;;;;;15.00;99.90;;;;;;4991004;28;19933;-79
2022/09/10 03:54:54;;;;;;;;;;;15.00;99.90;;;;;;5006734;28;20004;-78
2022/09/10 03:57:21;;;;;;;;;;;15.00;99.90;;;;;;5005571;28;20380;-78
2022/09/10 03:59:46;;;;;;;;;;;15.00;99.90;;;;;;5011863;28;19970;-79
2022/09/10 04:02:13;;;;;;;;;;;15.00;99.90;;;;;;4984201;28;19997;-78
2022/09/10 04:04:39;;;;;;;;;;;15.00;99.90;;;;;;4976931;28;19987;-78
2022/09/10 04:07:05;;;;;;;;;;;15.00;99.90;;;;;;4990170;28;19931;-78
2022/09/10 04:09:31;;;;;;;;;;;15.00;99.90;;;;;;4979460;28;19925;-78
2022/09/10 04:11:58;;;;;;;;;;;15.10;99.90;;;;;;4990970;28;19925;-77
2022/09/10 04:14:25;;;;;;;;;;;15.00;99.90;;;;;;5007469;28;19929;-77
2022/09/10 04:16:51;;;;;;;;;;;15.00;99.90;;;;;;5006684;28;19926;-78
2022/09/10 04:19:16;;;;;;;;;;;15.00;99.90;;;;;;4981800;28;19933;-78
2022/09/10 04:21:42;;;;;;;;;;;15.00;99.90;;;;;;5004513;28;19975;-78
2022/09/10 04:24:10;;;;;;;;;;;15.00;99.90;;;;;;5010113;28;19976;-77
2022/09/10 04:26:36;;;;;;;;;;;15.00;99.90;;;;;;5007340;28;19972;-78
2022/09/10 04:29:02;;;;;;;;;;;15.10;99.90;;;;;;5007210;28;19975;-79
2022/09/10 04:31:28;;;;;;;;;;;15.10;99.90;;;;;;5011207;28;20396;-79
2022/09/10 04:33:54;;;;;;;;;;;15.00;99.90;;;;;;5009063;28;20305;-77
2022/09/10 04:36:20;;;;;;;;;;;15.00;99.90;;;;;;4991727;28;19987;-77
2022/09/10 04:38:45;;;;;;;;;;;15.00;99.90;;;;;;5014725;28;19944;-78
2022/09/10 04:41:14;;;;;;;;;;;15.00;99.90;;;;;;5010607;28;19937;-78
2022/09/10 04:43:40;;;;;;;;;;;15.00;99.90;;;;;;4993680;28;19972;-77
2022/09/10 04:46:06;;;;;;;;;;;15.00;99.90;;;;;;5010261;28;19933;-77
2022/09/10 04:48:32;;;;;;;;;;;15.00;99.90;;;;;;5006186;28;19939;-79
2022/09/10 04:50:58;;;;;;;;;;;15.00;99.90;;;;;;5006397;28;19936;-77
2022/09/10 04:53:26;;;;;;;;;;;15.10;99.90;;;;;;5008639;28;19925;-78
2022/09/10 04:55:53;;;;;;;;;;;15.10;99.90;;;;;;5009894;28;20032;-78
2022/09/10 04:58:20;;;;;;;;;;;15.10;99.90;;;;;;4985558;28;20008;-79
2022/09/10 05:00:48;;;;;;;;;;;15.00;99.90;;;;;;5004003;28;19925;-79
2022/09/10 05:03:14;;;;;;;;;;;15.10;99.90;;;;;;4990010;28;19979;-78
2022/09/10 05:05:41;;;;;;;;;;;15.10;99.90;;;;;;4989967;28;19932;-79
2022/09/10 05:08:07;;;;;;;;;;;15.10;99.90;;;;;;4990588;28;19929;-80
2022/09/10 05:10:35;;;;;;;;;;;15.10;99.90;;;;;;5010441;28;19936;-78
2022/09/10 05:13:01;;;;;;;;;;;15.10;99.90;;;;;;5009853;28;20412;-80
2022/09/10 05:15:27;;;;;;;;;;;15.10;99.90;;;;;;4990913;28;19974;-80
2022/09/10 05:17:53;;;;;;;;;;;15.10;99.90;;;;;;4976335;28;19929;-79
2022/09/10 05:20:19;;;;;;;;;;;15.10;99.90;;;;;;4990501;28;19922;-80
2022/09/10 05:22:44;;;;;;;;;;;15.10;99.90;;;;;;5003551;28;19925;-79
2022/09/10 05:25:10;;;;;;;;;;;15.10;99.90;;;;;;4973338;28;19936;-79
2022/09/10 05:27:36;;;;;;;;;;;15.10;99.90;;;;;;5007390;28;20004;-79
2022/09/10 05:30:03;;;;;;;;;;;15.10;99.90;;;;;;5009239;28;20010;-80
2022/09/10 05:32:31;;;;;;;;;;;15.10;99.90;;;;;;5004877;28;20012;-79
2022/09/10 05:34:57;;;;;;;;;;;15.10;99.90;;;;;;5003684;28;19925;-79
2022/09/10 05:37:23;;;;;;;;;;;15.10;99.90;;;;;;4992701;28;19933;-80
2022/09/10 05:39:49;;;;;;;;;;;15.10;99.90;;;;;;4997633;28;19925;-80
2022/09/10 05:42:16;;;;;;;;;;;15.20;99.90;;;;;;4990822;28;20380;-80
2022/09/10 05:44:42;;;;;;;;;;;15.20;99.90;;;;;;4988108;28;20414;-80
2022/09/10 05:47:07;;;;;;;;;;;15.20;99.90;;;;;;5004035;28;19929;-80
2022/09/10 05:49:33;;;;;;;;;;;15.20;99.90;;;;;;4986926;28;20028;-80
2022/09/10 05:51:59;;;;;;;;;;;15.20;99.90;;;;;;5001647;28;19931;-80
2022/09/10 05:54:25;;;;;;;;;;;15.20;99.90;;;;;;5003299;28;19923;-80
2022/09/10 05:56:51;;;;;;;;;;;15.20;99.90;;;;;;4984948;28;19929;-81
2022/09/10 05:59:16;;;;;;;;;;;15.20;99.90;;;;;;4989826;28;19933;-80
2022/09/10 06:01:42;;;;;;;;;;;15.20;99.90;;;;;;4982768;28;20066;-80
2022/09/10 06:04:08;;;;;;;;;;;15.20;99.90;;;;;;4976573;28;19930;-80
2022/09/10 06:06:34;;;;;;;;;;;15.20;99.90;;;;;;4999770;28;19927;-80
2022/09/10 06:08:59;;;;;;;;;;;15.20;99.90;;;;;;4992906;28;19930;-80
2022/09/10 06:11:26;;;;;;;;;;;15.20;99.90;;;;;;4984071;28;19936;-81
2022/09/10 06:13:52;;;;;;;;;;;15.20;99.90;;;;;;4984318;28;20032;-80
2022/09/10 06:16:18;;;;;;;;;;;15.20;99.90;;;;;;4970146;28;19943;-79
2022/09/10 06:18:44;;;;;;;;;;;15.20;99.90;;;;;;4981672;28;19926;-80
2022/09/10 06:21:14;;;;;;;;;;;15.20;99.90;;;;;;4974352;28;20016;-81
2022/09/10 06:23:40;;;;;;;;;;;15.20;99.90;;;;;;4983560;28;19952;-80
2022/09/10 06:26:07;;;;;;;;;;;15.20;99.90;;;;;;4974789;28;19937;-79
2022/09/10 06:28:33;;;;;;;;;;;15.20;99.90;;;;;;4959068;28;19953;-81
2022/09/10 06:30:59;;;;;;;;;;;15.30;99.90;;;;;;4983171;28;20334;-81
2022/09/10 06:33:25;;;;;;;;;;;15.30;99.90;;;;;;4972660;28;20547;-79
2022/09/10 06:35:52;;;;;;;;;;;15.30;99.90;;;;;;4970213;28;20012;-79
2022/09/10 06:38:18;;;;;;;;;;;15.30;99.90;;;;;;4985520;28;19949;-80
2022/09/10 06:40:53;;;;;;;;;;;15.40;99.90;;;;;;4983831;28;20422;-81
2022/09/10 06:43:19;;;;;;;;;;;15.30;99.90;;;;;;4980209;28;20495;-83
2022/09/10 06:45:45;;;;;;;;;;;15.40;99.90;;;;;;4985390;28;19922;-78
2022/09/10 06:48:11;;;;;;;;;;;15.40;99.90;;;;;;4959148;28;19949;-83
2022/09/10 06:50:37;;;;;;;;;;;15.50;99.90;;;;;;4979606;28;19977;-79
2022/09/10 06:53:03;;;;;;;;;;;15.50;99.90;;;;;;4986822;28;20483;-81
2022/09/10 06:55:29;;;;;;;;;;;15.50;99.90;;;;;;4965402;28;20537;-80
2022/09/10 06:57:55;;;;;;;;;;;15.50;99.90;;;;;;4965352;28;19932;-79
2022/09/10 07:00:21;;;;;;;;;;;15.50;99.90;;;;;;4997972;28;19940;-79
2022/09/10 07:02:49;;;;;;;;;;;15.50;99.90;;;;;;4979558;28;20058;-79
2022/09/10 07:05:15;;;;;;;;;;;15.50;99.90;;;;;;4981571;28;19980;-81
2022/09/10 07:07:40;;;;;;;;;;;15.60;99.90;;;;;;4985914;28;19933;-80
2022/09/10 07:10:07;;;;;;;;;;;15.50;99.90;;;;;;4990903;28;19933;-79
2022/09/10 07:12:33;;;;;;;;;;;15.60;99.90;;;;;;4972341;28;19947;-79
2022/09/10 07:14:58;;;;;;;;;;;15.60;99.90;;;;;;4984163;28;20288;-80
2022/09/10 07:17:24;;;;;;;;;;;15.60;99.90;;;;;;4988523;28;19962;-80
2022/09/10 07:19:50;;;;;;;;;;;15.60;99.90;;;;;;4976082;28;21014;-81
2022/09/10 07:22:16;;;;;;;;;;;15.60;99.90;;;;;;4981114;28;19933;-79
2022/09/10 07:24:42;;;;;;;;;;;15.60;99.90;;;;;;4979314;28;19933;-79
2022/09/10 07:27:09;;;;;;;;;;;15.60;99.90;;;;;;4982566;28;19928;-79
2022/09/10 07:29:35;;;;;;;;;;;15.70;99.90;;;;;;4971150;28;19934;-80
2022/09/10 07:32:03;;;;;;;;;;;15.60;99.90;;;;;;4965425;28;19987;-79
2022/09/10 07:34:29;;;;;;;;;;;15.60;99.90;;;;;;4993503;28;19925;-79
2022/09/10 07:36:55;;;;;;;;;;;15.60;99.90;;;;;;4982716;28;20466;-80
2022/09/10 07:39:22;;;;;;;;;;;15.60;99.90;;;;;;4977982;28;19926;-80
2022/09/10 07:41:47;;;;;;;;;;;15.60;99.90;;;;;;4997993;28;20428;-79
2022/09/10 07:44:13;;;;;;;;;;;15.60;99.90;;;;;;4962044;28;19936;-78
2022/09/10 07:46:40;;;;;;;;;;;15.60;99.90;;;;;;4996101;28;20011;-80
2022/09/10 07:49:06;;;;;;;;;;;15.70;99.90;;;;;;4963338;28;20467;-81
2022/09/10 07:51:32;;;;;;;;;;;15.70;99.90;;;;;;4978326;28;20025;-81
2022/09/10 07:53:58;;;;;;;;;;;15.80;99.90;;;;;;4981834;28;19926;-82
2022/09/10 07:56:25;;;;;;;;;;;15.70;99.90;;;;;;4961508;28;19979;-83
2022/09/10 07:58:51;;;;;;;;;;;15.70;99.90;;;;;;4991686;28;19973;-82
2022/09/10 08:01:18;;;;;;;;;;;15.90;99.90;;;;;;4954251;28;19933;-80
2022/09/10 08:03:44;;;;;;;;;;;15.80;99.90;;;;;;4981639;28;20540;-81
2022/09/10 08:06:10;;;;;;;;;;;15.80;99.90;;;;;;4967428;28;19980;-80
2022/09/10 08:08:37;;;;;;;;;;;15.80;99.90;;;;;;4988204;28;19933;-83
2022/09/10 08:11:06;;;;;;;;;;;15.90;99.90;;;;;;5014268;28;19925;-79
2022/09/10 08:13:33;;;;;;;;;;;15.90;99.90;;;;;;4981337;28;20504;-80
2022/09/10 08:15:59;;;;;;;;;;;16.00;99.90;;;;;;4986682;28;19926;-80
2022/09/10 08:18:25;;;;;;;;;;;16.00;99.90;;;;;;4978642;28;19925;-81
2022/09/10 08:20:54;;;;;;;;;;;16.00;99.90;;;;;;4971879;28;19926;-84
2022/09/10 08:23:21;;;;;;;;;;;16.00;99.90;;;;;;5011099;28;19929;-82
2022/09/10 08:25:50;;;;;;;;;;;16.00;99.90;;;;;;4965886;28;19934;-84
2022/09/10 08:28:21;;;;;;;;;;;16.00;99.90;;;;;;5013283;28;20438;-83
2022/09/10 08:30:57;;;;;;;;;;;16.00;99.90;;;;;;4979583;28;19929;-80
2022/09/10 08:33:23;;;;;;;;;;;16.00;99.90;;;;;;4978254;28;19938;-79
2022/09/10 08:35:56;;;;;;;;;;;16.00;99.90;;;;;;4978892;28;19934;-79
2022/09/10 08:38:23;;;;;;;;;;;16.00;99.90;;;;;;4979880;28;20408;-80
2022/09/10 08:40:49;;;;;;;;;;;16.00;99.90;;;;;;4979573;28;19933;-80
2022/09/10 08:43:16;;;;;;;;;;;16.00;99.90;;;;;;4982387;28;19941;-81
2022/09/10 08:45:45;;;;;;;;;;;16.00;99.90;;;;;;4972943;28;20004;-80
2022/09/10 08:48:16;;;;;;;;;;;16.00;99.90;;;;;;4965161;28;20004;-79
2022/09/10 08:50:47;;;;;;;;;;;16.10;99.90;;;;;;4974658;28;19953;-80
2022/09/10 08:53:24;;;;;;;;;;;16.00;99.90;;;;;;4986135;28;19937;-79
2022/09/10 08:55:54;;;;;;;;;;;16.00;99.90;;;;;;4983548;28;20562;-79
2022/09/10 08:58:24;;;;;;;;;;;16.00;99.90;;;;;;4977072;28;19961;-80
2022/09/10 09:00:54;;;;;;;;;;;16.00;99.90;;;;;;4981203;28;19929;-78
2022/09/10 09:03:26;;;;;;;;;;;16.10;99.90;;;;;;4970069;28;20526;-80
2022/09/10 09:05:57;;;;;;;;;;;16.00;99.90;;;;;;4967953;28;19926;-79
2022/09/10 09:08:24;;;;;;;;;;;16.00;99.90;;;;;;4967547;28;19952;-81
2022/09/10 09:10:50;;;;;;;;;;;16.10;99.90;;;;;;4978694;28;20290;-79
2022/09/10 09:13:51;;;;;;;;;;;16.00;99.90;;;;;;4979648;28;19944;-80
2022/09/10 09:16:20;;;;;;;;;;;16.20;99.90;;;;;;4873283;29;20784;-81
2022/09/10 09:18:53;;;;;;;;;;;16.20;99.90;;;;;;4952990;28;19925;-80
2022/09/10 09:21:34;;;;;;;;;;;16.20;99.90;;;;;;4965984;28;20484;-81
2022/09/10 09:24:02;;;;;;;;;;;16.20;99.90;;;;;;4981092;28;19933;-80
2022/09/10 09:26:33;;;;;;;;;;;16.30;99.90;;;;;;4959989;28;19968;-83
2022/09/10 09:29:02;;;;;;;;;;;16.30;99.90;;;;;;4994597;28;19984;-81
2022/09/10 09:31:32;;;;;;;;;;;16.30;99.90;;;;;;4979447;28;19926;-80
2022/09/10 09:34:00;;;;;;;;;;;16.30;99.90;;;;;;4964920;28;19929;-81
2022/09/10 09:36:33;;;;;;;;;;;16.40;99.90;;;;;;4961956;28;19933;-80
2022/09/10 09:39:00;;;;;;;;;;;16.40;99.90;;;;;;4977196;28;19972;-80
2022/09/10 09:41:40;;;;;;;;;;;16.50;99.90;;;;;;4985190;28;19939;-81
2022/09/10 09:44:16;;;;;;;;;;;16.50;99.90;;;;;;4978752;28;20320;-81
2022/09/10 09:46:43;;;;;;;;;;;16.50;99.90;;;;;;4981413;28;19934;-80
2022/09/10 09:49:14;;;;;;;;;;;16.60;99.90;;;;;;4973993;28;19972;-81
2022/09/10 09:51:42;;;;;;;;;;;16.60;99.90;;;;;;4964078;28;19933;-81
2022/09/10 09:54:14;;;;;;;;;;;16.60;99.90;;;;;;4962365;28;19999;-80
2022/09/10 09:56:41;;;;;;;;;;;16.70;99.90;;;;;;4957345;28;20027;-82
2022/09/10 09:59:10;;;;;;;;;;;16.70;99.90;;;;;;4982940;28;19929;-80
2022/09/10 10:01:39;;;;;;;;;;;16.70;99.90;;;;;;4982268;28;20003;-82
2022/09/10 10:04:18;;;;;;;;;;;16.70;99.90;;;;;;4970304;28;19928;-82
2022/09/10 10:06:45;;;;;;;;;;;16.70;99.90;;;;;;4958650;28;19925;-81
2022/09/10 10:09:19;;;;;;;;;;;16.70;99.90;;;;;;4999103;28;20451;-84
2022/09/10 10:11:54;;;;;;;;;;;16.70;99.90;;;;;;5001210;28;19929;-82
2022/09/10 10:14:21;;;;;;;;;;;16.80;99.90;;;;;;5003239;28;20406;-83
2022/09/10 10:16:48;;;;;;;;;;;16.70;99.90;;;;;;4983926;28;19933;-82
2022/09/10 10:19:26;;;;;;;;;;;16.80;99.90;;;;;;5006702;28;20008;-82
2022/09/10 10:21:53;;;;;;;;;;;16.70;99.90;;;;;;5002874;28;20300;-83
2022/09/10 10:24:32;;;;;;;;;;;16.70;99.90;;;;;;5002072;28;19932;-81
2022/09/10 10:26:58;;;;;;;;;;;16.70;99.90;;;;;;4998418;28;20252;-82
2022/09/10 10:29:24;;;;;;;;;;;16.80;99.90;;;;;;4977625;28;19926;-80
2022/09/10 10:31:52;;;;;;;;;;;16.80;99.90;;;;;;4986866;28;19932;-81
2022/09/10 10:34:37;;;;;;;;;;;16.80;99.90;;;;;;4974107;28;20001;-83
2022/09/10 10:37:29;;;;;;;;;;;16.80;99.90;;;;;;4983602;28;19925;-81
2022/09/10 10:40:03;;;;;;;;;;;16.80;99.90;;;;;;4980215;28;20407;-81
2022/09/10 10:42:41;;;;;;;;;;;16.80;99.90;;;;;;5005770;28;20561;-82
2022/09/10 10:45:22;;;;;;;;;;;16.80;99.90;;;;;;5000249;28;19977;-82
2022/09/10 10:48:02;;;;;;;;;;;16.80;99.90;;;;;;4989342;28;19933;-78
2022/09/10 10:50:33;;;;;;;;;;;16.90;99.90;;;;;;5002241;28;20443;-78
2022/09/10 10:53:10;;;;;;;;;;;16.80;99.90;;;;;;5000289;28;19925;-77
2022/09/10 10:55:44;;;;;;;;;;;16.90;99.90;;;;;;4987404;28;20522;-77
2022/09/10 10:58:19;;;;;;;;;;;17.00;99.90;;;;;;5006053;28;19925;-78
2022/09/10 11:00:48;;;;;;;;;;;17.00;99.90;;;;;;5001209;28;20676;-79
2022/09/10 11:03:34;;;;;;;;;;;17.10;99.90;;;;;;4985514;28;19928;-78
2022/09/10 11:06:03;;;;;;;;;;;17.10;99.90;;;;;;4979704;28;20454;-80
2022/09/10 11:08:41;;;;;;;;;;;17.10;99.90;;;;;;4982583;28;19940;-78
2022/09/10 11:11:12;;;;;;;;;;;17.10;99.90;;;;;;4996836;28;19925;-79
2022/09/10 11:13:42;;;;;;;;;;;17.20;99.90;;;;;;4991294;28;19925;-78
2022/09/10 11:16:20;;;;;;;;;;;17.20;99.90;;;;;;4989700;28;19936;-78
2022/09/10 11:18:52;;;;;;;;;;;17.40;99.90;;;;;;5007654;28;19929;-81
2022/09/10 11:21:28;;;;;;;;;;;17.40;99.90;;;;;;4975053;28;20149;-80
2022/09/10 11:24:09;;;;;;;;;;;17.50;99.90;;;;;;4989941;28;19928;-78
2022/09/10 11:26:38;;;;;;;;;;;17.70;99.90;;;;;;4999137;28;19946;-79
2022/09/10 11:29:07;;;;;;;;;;;17.90;99.90;;;;;;4979155;28;20047;-80
2022/09/10 11:31:58;;;;;;;;;;;18.00;99.90;;;;;;4990915;28;20501;-79
2022/09/10 11:34:30;;;;;;;;;;;18.30;99.90;;;;;;4994049;28;20031;-80
2022/09/10 11:37:11;;;;;;;;;;;18.50;99.90;;;;;;4999002;28;19979;-80
2022/09/10 11:39:39;;;;;;;;;;;19.10;99.90;;;;;;4996774;28;19933;-81
2022/09/10 11:42:12;;;;;;;;;;;19.30;99.90;;;;;;4990539;28;19933;-80
2022/09/10 11:44:44;;;;;;;;;;;19.60;99.90;;;;;;4993316;28;19948;-81
2022/09/10 11:47:22;;;;;;;;;;;19.60;99.90;;;;;;4991679;28;19979;-81
2022/09/10 11:49:52;;;;;;;;;;;19.50;99.90;;;;;;4992026;28;19981;-79
2022/09/10 11:52:18;;;;;;;;;;;19.40;99.90;;;;;;4986787;28;19931;-79
2022/09/10 11:54:47;;;;;;;;;;;19.20;99.90;;;;;;5011358;28;19952;-80
2022/09/10 11:57:22;;;;;;;;;;;19.10;99.90;;;;;;5009433;28;19925;-79
2022/09/10 11:59:51;;;;;;;;;;;19.00;99.90;;;;;;5001693;28;20088;-80
2022/09/10 12:02:36;;;;;;;;;;;18.90;99.90;;;;;;5006102;28;19933;-80
2022/09/10 12:05:14;;;;;;;;;;;18.80;99.90;;;;;;5002163;28;19932;-80
2022/09/10 12:07:55;;;;;;;;;;;18.70;99.90;;;;;;5003225;28;19933;-80
2022/09/10 12:10:29;;;;;;;;;;;18.60;99.90;;;;;;4970660;28;20364;-81
2022/09/10 12:12:54;;;;;;;;;;;18.70;99.90;;;;;;4987793;28;19979;-80
2022/09/10 12:15:25;;;;;;;;;;;18.80;99.90;;;;;;4969503;28;19996;-79
2022/09/10 12:17:57;;;;;;;;;;;18.70;99.90;;;;;;4986990;28;19925;-79
2022/09/10 12:20:49;;;;;;;;;;;18.80;99.90;;;;;;4987962;28;19941;-81
2022/09/10 12:23:17;;;;;;;;;;;18.90;99.90;;;;;;4983505;28;19932;-77
2022/09/10 12:25:43;;;;;;;;;;;19.10;99.90;;;;;;4966850;28;20412;-79
2022/09/10 12:28:30;;;;;;;;;;;19.30;99.90;;;;;;4953701;28;19929;-79
2022/09/10 12:30:59;;;;;;;;;;;19.40;99.90;;;;;;4971980;28;20528;-83
2022/09/10 12:33:25;;;;;;;;;;;19.60;99.90;;;;;;4963224;28;19926;-80
2022/09/10 12:35:51;;;;;;;;;;;19.70;99.90;;;;;;4965843;28;19979;-79
2022/09/10 12:41:32;;;;;;;;;;;19.80;99.90;;;;;;4989283;28;19956;-79
2022/09/10 12:43:58;;;;;;;;;;;19.90;99.90;;;;;;4968213;28;19937;-81
2022/09/10 12:46:25;;;;;;;;;;;20.00;99.90;;;;;;4990384;28;19926;-81
2022/09/10 12:48:54;;;;;;;;;;;20.10;99.90;;;;;;4989139;28;19972;-81
2022/09/10 12:51:26;;;;;;;;;;;20.20;99.90;;;;;;5002257;28;19938;-83
2022/09/10 12:53:52;;;;;;;;;;;20.20;99.90;;;;;;4966978;28;20060;-82
2022/09/10 12:56:18;;;;;;;;;;;20.20;99.90;;;;;;4972545;28;20020;-81
2022/09/10 12:59:05;;;;;;;;;;;20.20;99.90;;;;;;4986243;28;19925;-81
2022/09/10 13:01:34;;;;;;;;;;;20.20;99.90;;;;;;4969354;28;19926;-80
2022/09/10 13:04:01;;;;;;;;;;;20.10;99.90;;;;;;4982004;28;19940;-81
2022/09/10 13:06:38;;;;;;;;;;;19.90;99.90;;;;;;4967539;28;19981;-81
2022/09/10 13:09:15;;;;;;;;;;;19.80;99.90;;;;;;4985900;28;19925;-82
2022/09/10 13:11:43;;;;;;;;;;;19.70;99.90;;;;;;4985628;28;19961;-81
2022/09/10 13:14:14;;;;;;;;;;;19.70;99.90;;;;;;4970567;28;19933;-81
2022/09/10 13:16:41;;;;;;;;;;;19.70;99.90;;;;;;5007374;28;19932;-82
2022/09/10 13:19:13;;;;;;;;;;;19.70;99.90;;;;;;4969975;28;19930;-81
2022/09/10 13:21:41;;;;;;;;;;;19.70;99.90;;;;;;4971383;28;20340;-80
2022/09/10 13:24:30;;;;;;;;;;;19.70;99.90;;;;;;4988158;28;19980;-81
2022/09/10 13:27:03;;;;;;;;;;;19.70;99.90;;;;;;4985525;28;19976;-84
2022/09/10 13:29:37;;;;;;;;;;;19.60;99.90;;;;;;4971252;28;20440;-81
2022/09/10 13:32:10;;;;;;;;;;;19.70;99.90;;;;;;4973036;28;19930;-81
2022/09/10 13:34:51;;;;;;;;;;;19.70;99.90;;;;;;4963763;28;20578;-80
2022/09/10 13:37:38;;;;;;;;;;;19.60;99.90;;;;;;4992164;28;19938;-82
2022/09/10 13:40:19;;;;;;;;;;;19.60;99.90;;;;;;4968665;28;19926;-81
2022/09/10 13:42:53;;;;;;;;;;;19.50;99.90;;;;;;4974676;28;19932;-82
2022/09/10 13:45:30;;;;;;;;;;;19.40;99.90;;;;;;4998757;28;20492;-81
2022/09/10 13:48:13;;;;;;;;;;;19.30;99.90;;;;;;4988095;28;19929;-81
2022/09/10 13:50:40;;;;;;;;;;;19.20;99.90;;;;;;4986986;28;19932;-82
2022/09/10 13:53:07;;;;;;;;;;;19.20;99.90;;;;;;4986886;28;19940;-81
2022/09/10 13:55:33;;;;;;;;;;;19.20;99.90;;;;;;4985720;28;19925;-79
2022/09/10 13:58:04;;;;;;;;;;;19.10;99.90;;;;;;5008323;28;19977;-80
2022/09/10 14:01:00;;;;;;;;;;;19.10;99.90;;;;;;4985312;28;19948;-81
2022/09/10 14:03:30;;;;;;;;;;;19.20;99.90;;;;;;4974355;28;20360;-81
2022/09/10 14:05:57;;;;;;;;;;;19.20;99.90;;;;;;5006148;28;19934;-80
2022/09/10 14:08:34;;;;;;;;;;;19.20;99.90;;;;;;4979922;28;19992;-81
2022/09/10 14:11:19;;;;;;;;;;;19.30;99.90;;;;;;4985966;28;20024;-82
2022/09/10 14:13:54;;;;;;;;;;;19.30;99.90;;;;;;4968265;28;20013;-81
2022/09/10 14:16:28;;;;;;;;;;;19.40;99.90;;;;;;4979728;28;19926;-83
2022/09/10 14:18:56;;;;;;;;;;;19.50;99.90;;;;;;4983973;28;20008;-83
2022/09/10 14:21:25;;;;;;;;;;;19.50;99.90;;;;;;4983671;28;19930;-81
2022/09/10 14:23:54;;;;;;;;;;;19.50;99.90;;;;;;4985249;28;20516;-82
2022/09/10 14:26:25;;;;;;;;;;;19.40;99.90;;;;;;4967167;28;19930;-82
2022/09/10 14:28:58;;;;;;;;;;;19.40;99.90;;;;;;4962060;28;19996;-81
2022/09/10 14:31:24;;;;;;;;;;;19.30;99.90;;;;;;4983866;28;19926;-82
2022/09/10 14:33:50;;;;;;;;;;;19.20;99.90;;;;;;4987473;28;20028;-82
2022/09/10 14:36:20;;;;;;;;;;;19.20;99.90;;;;;;4985290;28;19984;-83